createdAt,value
2023-03-12T00:02:19.213Z,1.80
2023-03-12T00:04:45.864Z,1.45
2023-03-12T00:07:12.533Z,2.10
2023-03-12T00:09:39.601Z,1.33
2023-03-12T00:12:07.389Z,1.70
2023-03-12T00:14:34.361Z,2.15
2023-03-12T00:17:01.073Z,1.52
2023-03-12T00:19:28.133Z,0.98
2023-03-12T00:21:54.943Z,2.15
2023-03-12T00:24:21.587Z,1.63
2023-03-12T00:26:48.499Z,1.50
2023-03-12T00:29:15.240Z,1.90
2023-03-12T00:31:41.950Z,1.90
2023-03-12T00:34:10.009Z,1.73
2023-03-12T00:36:36.705Z,1.23
2023-03-12T00:39:04.183Z,2.33
2023-03-12T00:41:30.939Z,2.33
2023-03-12T00:43:57.930Z,2.30
2023-03-12T00:46:24.826Z,2.13
2023-03-12T00:48:51.825Z,1.63
2023-03-12T00:51:18.821Z,1.65
2023-03-12T00:53:45.855Z,2.50
2023-03-12T00:56:12.503Z,1.77
2023-03-12T00:58:39.176Z,2.25
2023-03-12T01:01:05.965Z,1.92
2023-03-12T01:03:32.925Z,1.92
2023-03-12T01:05:59.885Z,2.03
2023-03-12T01:08:26.956Z,2.55
2023-03-12T01:10:53.780Z,1.77
2023-03-12T01:13:21.122Z,2.38
2023-03-12T01:15:47.835Z,2.30
2023-03-12T01:18:14.826Z,2.03
2023-03-12T01:20:41.792Z,2.17
2023-03-12T01:23:08.855Z,2.20
2023-03-12T01:25:36.453Z,2.47
2023-03-12T01:28:03.209Z,3.65
2023-03-12T01:30:30.645Z,2.25
2023-03-12T01:32:57.334Z,2.72
2023-03-12T01:35:24.514Z,2.72
2023-03-12T01:37:51.173Z,2.78
2023-03-12T01:40:20.301Z,3.10
2023-03-12T01:42:57.647Z,2.47
2023-03-12T01:45:58.505Z,2.55
2023-03-12T01:48:26.033Z,2.35
2023-03-12T01:50:52.648Z,3.55
2023-03-12T01:53:19.501Z,2.58
2023-03-12T01:55:46.497Z,2.70
2023-03-12T01:58:13.536Z,2.65
2023-03-12T02:00:40.444Z,3.53
2023-03-12T02:03:10.339Z,2.42
2023-03-12T02:05:51.308Z,3.13
2023-03-12T02:08:19.058Z,2.50
2023-03-12T02:10:46.492Z,3.13
2023-03-12T02:13:13.317Z,2.13
2023-03-12T02:15:40.335Z,1.92
2023-03-12T02:18:09.514Z,2.10
2023-03-12T02:21:02.521Z,3.08
2023-03-12T02:23:38.223Z,2.47
2023-03-12T02:26:06.435Z,2.72
2023-03-12T02:28:35.267Z,2.50
2023-03-12T02:31:03.916Z,3.13
2023-03-12T02:33:30.574Z,2.33
2023-03-12T02:35:57.220Z,2.00
2023-03-12T02:38:45.608Z,2.83
2023-03-12T02:41:14.873Z,2.10
2023-03-12T02:43:45.453Z,3.35
2023-03-12T02:46:12.954Z,2.55
2023-03-12T02:48:39.688Z,2.78
2023-03-12T02:51:07.014Z,3.63
2023-03-12T02:53:33.992Z,1.75
2023-03-12T02:56:00.827Z,2.35
2023-03-12T02:58:27.712Z,2.92
2023-03-12T03:00:54.649Z,3.20
2023-03-12T03:03:21.375Z,4.20
2023-03-12T03:05:47.997Z,4.00
2023-03-12T03:08:14.827Z,3.15
2023-03-12T03:10:41.492Z,2.60
2023-03-12T03:13:08.504Z,4.15
2023-03-12T03:15:35.282Z,3.45
2023-03-12T03:18:03.945Z,2.03
2023-03-12T03:20:32.200Z,2.53
2023-03-12T03:22:58.918Z,2.67
2023-03-12T03:25:26.039Z,3.30
2023-03-12T03:27:52.913Z,2.70
2023-03-12T03:30:21.335Z,3.83
2023-03-12T03:32:50.020Z,3.00
2023-03-12T03:35:17.446Z,3.10
2023-03-12T03:37:50.272Z,2.58
2023-03-12T03:40:17.416Z,3.58
2023-03-12T03:42:44.120Z,3.20
2023-03-12T03:45:10.930Z,4.18
2023-03-12T03:47:37.945Z,3.75
2023-03-12T03:50:06.075Z,4.45
2023-03-12T03:52:33.100Z,2.97
2023-03-12T03:54:59.816Z,4.40
2023-03-12T03:57:27.276Z,2.80
2023-03-12T03:59:54.375Z,3.60
2023-03-12T04:02:21.750Z,4.15
2023-03-12T04:04:48.379Z,4.15
2023-03-12T04:07:15.246Z,4.05
2023-03-12T04:09:42.122Z,4.65
2023-03-12T04:12:09.221Z,4.47
2023-03-12T04:14:38.805Z,2.75
2023-03-12T04:17:05.678Z,3.17
2023-03-12T04:19:32.265Z,3.72
2023-03-12T04:21:58.928Z,3.47
2023-03-12T04:24:25.743Z,3.35
2023-03-12T04:26:52.439Z,3.78
2023-03-12T04:29:20.044Z,3.63
2023-03-12T04:31:47.013Z,2.88
2023-03-12T04:34:14.653Z,4.15
2023-03-12T04:36:41.864Z,3.60
2023-03-12T04:39:08.724Z,3.35
2023-03-12T04:41:36.244Z,2.85
2023-03-12T04:44:03.659Z,3.25
2023-03-12T04:46:30.414Z,2.92
2023-03-12T04:48:58.153Z,3.58
2023-03-12T04:51:25.416Z,3.10
2023-03-12T04:53:52.094Z,3.38
2023-03-12T04:56:18.882Z,2.60
2023-03-12T04:58:45.815Z,3.92
2023-03-12T05:01:25.368Z,3.65
2023-03-12T05:03:52.767Z,2.40
2023-03-12T05:06:20.426Z,3.30
2023-03-12T05:08:48.204Z,3.00
2023-03-12T05:11:15.345Z,4.28
2023-03-12T05:13:43.058Z,2.03
2023-03-12T05:16:11.323Z,3.67
2023-03-12T05:18:38.548Z,2.97
2023-03-12T05:21:07.160Z,2.88
2023-03-12T05:23:34.650Z,2.35
2023-03-12T05:26:02.074Z,2.53
2023-03-12T05:28:29.251Z,3.85
2023-03-12T05:30:57.785Z,2.70
2023-03-12T05:33:25.297Z,3.75
2023-03-12T05:35:52.325Z,4.30
2023-03-12T05:38:19.439Z,2.47
2023-03-12T05:40:57.431Z,2.88
2023-03-12T05:43:24.298Z,4.22
2023-03-12T05:45:51.395Z,3.08
2023-03-12T05:48:18.240Z,3.15
2023-03-12T05:50:45.622Z,2.83
2023-03-12T05:53:12.323Z,2.95
2023-03-12T05:55:40.364Z,5.32
2023-03-12T05:58:07.984Z,2.90
2023-03-12T06:00:38.857Z,4.03
2023-03-12T06:03:06.120Z,2.78
2023-03-12T06:05:35.304Z,3.15
2023-03-12T06:08:03.410Z,2.55
2023-03-12T06:10:30.071Z,3.33
2023-03-12T06:12:58.020Z,3.00
2023-03-12T06:15:24.624Z,2.60
2023-03-12T06:17:51.410Z,3.83
2023-03-12T06:20:18.149Z,3.33
2023-03-12T06:22:44.762Z,3.10
2023-03-12T06:25:11.619Z,3.50
2023-03-12T06:27:38.275Z,3.35
2023-03-12T06:30:05.489Z,2.35
2023-03-12T06:32:32.315Z,3.53
2023-03-12T06:35:00.682Z,3.10
2023-03-12T06:37:27.880Z,3.58
2023-03-12T06:39:54.878Z,2.95
2023-03-12T06:42:22.766Z,1.90
2023-03-12T06:44:50.347Z,2.85
2023-03-12T06:47:17.768Z,2.92
2023-03-12T06:49:44.678Z,3.05
2023-03-12T06:52:11.609Z,2.25
2023-03-12T06:54:38.512Z,2.65
2023-03-12T06:57:05.120Z,3.22
2023-03-12T06:59:31.778Z,2.67
2023-03-12T07:01:58.742Z,2.75
2023-03-12T07:04:25.570Z,3.53
2023-03-12T07:06:52.545Z,2.80
2023-03-12T07:09:19.813Z,2.42
2023-03-12T07:11:46.637Z,3.08
2023-03-12T07:14:13.957Z,2.90
2023-03-12T07:16:41.080Z,2.90
2023-03-12T07:19:07.757Z,3.08
2023-03-12T07:21:34.592Z,3.78
2023-03-12T07:24:06.753Z,3.17
2023-03-12T07:26:35.318Z,2.35
2023-03-12T07:29:03.965Z,3.08
2023-03-12T07:31:30.793Z,3.58
2023-03-12T07:33:57.620Z,2.33
2023-03-12T07:36:24.886Z,3.50
2023-03-12T07:38:51.753Z,3.83
2023-03-12T07:41:19.844Z,3.78
2023-03-12T07:43:47.315Z,4.32
2023-03-12T07:46:16.344Z,2.92
2023-03-12T07:48:44.404Z,3.60
2023-03-12T07:51:11.448Z,3.83
2023-03-12T07:53:38.942Z,4.63
2023-03-12T07:56:06.356Z,3.58
2023-03-12T07:58:36.658Z,3.67
2023-03-12T08:01:03.532Z,3.25
2023-03-12T08:03:30.956Z,4.25
2023-03-12T08:06:03.394Z,4.05
2023-03-12T08:08:31.583Z,3.90
2023-03-12T08:11:01.162Z,3.60
2023-03-12T08:13:28.150Z,3.95
2023-03-12T08:15:55.591Z,3.75
2023-03-12T08:18:22.904Z,3.85
2023-03-12T08:20:54.254Z,4.90
2023-03-12T08:23:22.061Z,3.47
2023-03-12T08:25:50.315Z,3.08
2023-03-12T08:28:18.122Z,3.78
2023-03-12T08:31:04.814Z,3.13
2023-03-12T08:33:31.581Z,4.20
2023-03-12T08:35:58.478Z,3.90
2023-03-12T08:38:25.641Z,4.15
2023-03-12T08:41:00.154Z,4.50
2023-03-12T08:43:29.459Z,3.78
2023-03-12T08:45:58.699Z,3.85
2023-03-12T08:48:26.293Z,3.72
2023-03-12T08:50:56.471Z,3.70
2023-03-12T08:53:24.310Z,3.35
2023-03-12T08:55:55.710Z,4.57
2023-03-12T08:58:24.994Z,3.83
2023-03-12T09:00:52.677Z,4.03
2023-03-12T09:03:21.539Z,4.03
2023-03-12T09:05:49.715Z,2.92
2023-03-12T09:08:18.537Z,3.33
2023-03-12T09:10:52.221Z,2.95
2023-03-12T09:13:21.141Z,3.90
2023-03-12T09:15:47.924Z,3.75
2023-03-12T09:18:14.634Z,3.28
2023-03-12T09:20:42.888Z,2.38
2023-03-12T09:23:09.678Z,2.88
2023-03-12T09:25:36.416Z,3.00
2023-03-12T09:28:03.055Z,3.10
2023-03-12T09:30:30.664Z,2.15
2023-03-12T09:32:57.511Z,2.65
2023-03-12T09:35:24.360Z,2.00
2023-03-12T09:37:51.502Z,2.33
2023-03-12T09:40:23.131Z,1.85
2023-03-12T09:42:57.694Z,2.45
2023-03-12T09:45:35.097Z,1.95
2023-03-12T09:48:05.346Z,2.65
2023-03-12T09:50:43.761Z,1.70
2023-03-12T09:53:29.152Z,2.15
2023-03-12T09:55:58.452Z,2.47
2023-03-12T09:58:27.335Z,2.50
2023-03-12T10:01:01.202Z,2.65
2023-03-12T10:03:44.317Z,2.47
2023-03-12T10:06:21.447Z,2.08
2023-03-12T10:09:22.308Z,2.17
2023-03-12T10:12:10.528Z,2.03
2023-03-12T10:14:55.823Z,2.33
2023-03-12T10:17:57.942Z,3.10
2023-03-12T10:20:50.863Z,2.03
2023-03-12T10:23:39.119Z,2.42
2023-03-12T10:26:13.657Z,1.85
2023-03-12T10:28:53.590Z,2.75
2023-03-12T10:31:32.506Z,2.45
2023-03-12T10:34:02.244Z,2.45
2023-03-12T10:36:36.760Z,2.17
2023-03-12T10:39:05.557Z,2.25
2023-03-12T10:41:34.870Z,2.20
2023-03-12T10:44:07.047Z,2.00
2023-03-12T10:47:07.007Z,2.10
2023-03-12T10:49:36.723Z,1.95
2023-03-12T10:52:06.338Z,2.17
2023-03-12T10:54:40.788Z,2.28
2023-03-12T10:57:08.656Z,1.63
2023-03-12T10:59:39.307Z,2.65
2023-03-12T11:02:30.071Z,2.10
2023-03-12T11:04:57.997Z,2.42
2023-03-12T11:07:29.096Z,2.33
2023-03-12T11:10:08.127Z,2.10
2023-03-12T11:12:37.884Z,2.00
2023-03-12T11:15:28.137Z,2.92
2023-03-12T11:18:20.553Z,2.92
2023-03-12T11:20:52.474Z,3.60
2023-03-12T11:23:33.275Z,2.63
2023-03-12T11:26:08.512Z,2.63
2023-03-12T11:28:45.306Z,2.67
2023-03-12T11:38:18.999Z,1.92
2023-03-12T11:45:20.827Z,2.70
2023-03-12T11:48:15.801Z,2.58
2023-03-12T11:51:10.030Z,2.20
2023-03-12T11:57:07.835Z,2.53
2023-03-12T12:00:07.991Z,1.67
2023-03-12T12:02:35.151Z,2.15
2023-03-12T12:06:01.027Z,2.22
2023-03-12T12:09:30.304Z,1.77
2023-03-12T12:12:27.000Z,1.88
2023-03-12T12:18:58.143Z,1.58
2023-03-12T12:24:37.361Z,1.40
2023-03-12T12:27:27.330Z,2.10
2023-03-12T12:30:22.946Z,1.98
2023-03-12T12:33:25.143Z,2.00
2023-03-12T12:35:51.872Z,1.80
2023-03-12T12:38:37.569Z,1.30
2023-03-12T12:41:13.896Z,1.92
2023-03-12T12:43:42.492Z,1.35
2023-03-12T12:46:32.508Z,1.67
2023-03-12T12:49:14.134Z,1.77
2023-03-12T12:51:46.092Z,1.60
2023-03-12T12:54:24.265Z,1.08
2023-03-12T12:56:50.830Z,2.05
2023-03-12T12:59:42.251Z,1.75
2023-03-12T13:02:22.242Z,1.65
2023-03-12T13:04:51.621Z,1.25
2023-03-12T13:07:21.483Z,1.60
2023-03-12T13:09:51.105Z,1.35
2023-03-12T13:12:46.587Z,1.70
2023-03-12T13:15:45.000Z,1.45
2023-03-12T13:18:31.283Z,1.70
2023-03-12T13:21:17.298Z,1.10
2023-03-12T13:23:55.340Z,1.02
2023-03-12T13:26:30.951Z,1.42
2023-03-12T13:29:13.065Z,1.40
2023-03-12T13:31:42.100Z,1.13
2023-03-12T13:34:17.992Z,0.90
2023-03-12T13:36:47.150Z,1.65
2023-03-12T13:39:30.567Z,1.25
2023-03-12T13:41:58.697Z,1.35
2023-03-12T13:44:40.168Z,0.95
2023-03-12T13:47:30.890Z,1.35
2023-03-12T13:50:08.311Z,1.33
2023-03-12T13:52:46.993Z,1.27
2023-03-12T13:55:13.613Z,1.30
2023-03-12T13:57:50.177Z,0.98
2023-03-12T14:00:41.729Z,0.90
2023-03-12T14:03:31.399Z,1.17
2023-03-12T14:06:05.648Z,1.33
2023-03-12T14:09:00.432Z,1.60
2023-03-12T14:12:05.853Z,1.10
2023-03-12T14:14:52.391Z,0.93
2023-03-12T14:17:27.277Z,1.25
2023-03-12T14:20:17.565Z,1.30
2023-03-12T14:22:49.917Z,0.98
2023-03-12T14:25:29.682Z,1.00
2023-03-12T14:27:57.151Z,1.17
2023-03-12T14:30:32.358Z,1.00
2023-03-12T14:33:02.957Z,1.35
2023-03-12T14:35:40.533Z,1.30
2023-03-12T14:38:25.464Z,1.33
2023-03-12T14:41:08.077Z,1.05
2023-03-12T14:43:35.675Z,1.52
2023-03-12T14:46:14.864Z,1.63
2023-03-12T14:48:41.477Z,1.55
2023-03-12T14:51:08.343Z,1.60
2023-03-12T14:53:39.514Z,1.42
2023-03-12T14:56:07.344Z,1.10
2023-03-12T14:58:36.846Z,0.75
2023-03-12T15:01:06.993Z,1.17
2023-03-12T15:03:42.444Z,1.00
2023-03-12T15:06:27.835Z,1.30
2023-03-12T15:08:55.141Z,1.08
2023-03-12T15:11:25.690Z,1.30
2023-03-12T15:13:54.863Z,1.25
2023-03-12T15:16:22.936Z,1.50
2023-03-12T15:18:52.911Z,2.40
2023-03-12T15:21:24.665Z,2.17
2023-03-12T15:23:51.682Z,2.13
2023-03-12T15:26:21.499Z,1.50
2023-03-12T15:29:15.113Z,2.03
2023-03-12T15:31:49.369Z,2.00
2023-03-12T15:34:37.797Z,1.77
2023-03-12T15:37:29.740Z,2.10
2023-03-12T15:39:57.740Z,2.35
2023-03-12T15:42:26.858Z,1.65
2023-03-12T15:45:05.376Z,2.03
2023-03-12T15:47:39.436Z,2.13
2023-03-12T15:50:17.425Z,1.92
2023-03-12T15:53:18.007Z,1.52
2023-03-12T15:56:06.439Z,1.48
2023-03-12T15:58:37.214Z,1.20
2023-03-12T16:01:12.548Z,1.70
2023-03-12T16:03:41.486Z,1.45
2023-03-12T16:06:14.060Z,2.03
2023-03-12T16:08:52.489Z,1.55
2023-03-12T16:11:39.241Z,1.58
2023-03-12T16:14:24.389Z,1.80
2023-03-12T16:16:51.488Z,2.05
2023-03-12T16:19:21.001Z,1.80
2023-03-12T16:21:48.251Z,2.63
2023-03-12T16:24:19.997Z,1.65
2023-03-12T16:26:52.824Z,1.95
2023-03-12T16:29:20.477Z,2.33
2023-03-12T16:31:55.611Z,1.92
2023-03-12T16:34:23.368Z,2.08
2023-03-12T16:36:50.461Z,2.03
2023-03-12T16:39:18.830Z,2.28
2023-03-12T16:41:46.130Z,2.42
2023-03-12T16:44:19.870Z,1.98
2023-03-12T16:46:46.813Z,3.13
2023-03-12T16:49:16.381Z,2.03
2023-03-12T16:51:43.260Z,2.38
2023-03-12T16:54:12.225Z,2.67
2023-03-12T16:56:42.521Z,3.03
2023-03-12T16:59:25.688Z,2.13
2023-03-12T17:01:52.833Z,2.75
2023-03-12T17:04:19.777Z,2.40
2023-03-12T17:06:46.570Z,2.47
2023-03-12T17:09:13.253Z,3.47
2023-03-12T17:11:40.690Z,4.03
2023-03-12T17:14:17.230Z,2.65
2023-03-12T17:16:43.859Z,3.28
2023-03-12T17:19:10.562Z,2.55
2023-03-12T17:21:37.490Z,3.40
2023-03-12T17:24:04.662Z,2.92
2023-03-12T17:26:31.316Z,2.28
2023-03-12T17:28:58.316Z,3.25
2023-03-12T17:31:25.052Z,2.95
2023-03-12T17:33:51.781Z,3.25
2023-03-12T17:36:18.790Z,3.00
2023-03-12T17:38:45.431Z,2.42
2023-03-12T17:41:25.519Z,3.30
2023-03-12T17:43:53.994Z,3.22
2023-03-12T17:46:20.736Z,2.17
2023-03-12T17:48:47.539Z,3.60
2023-03-12T17:51:14.379Z,2.78
2023-03-12T17:53:42.175Z,2.72
2023-03-12T17:56:09.210Z,3.13
2023-03-12T17:58:35.882Z,3.90
2023-03-12T18:01:02.551Z,3.92
2023-03-12T18:03:29.259Z,2.63
2023-03-12T18:05:56.123Z,3.28
2023-03-12T18:08:22.980Z,3.65
2023-03-12T18:10:49.815Z,3.53
2023-03-12T18:16:07.633Z,3.95
2023-03-12T18:18:34.683Z,4.90
2023-03-12T18:21:01.353Z,3.92
2023-03-12T18:23:29.015Z,4.05
2023-03-12T18:25:55.814Z,4.30
2023-03-12T18:28:25.226Z,4.57
2023-03-12T18:30:53.943Z,4.60
2023-03-12T18:33:20.945Z,4.95
2023-03-12T18:35:47.778Z,6.05
2023-03-12T18:38:14.612Z,6.13
2023-03-12T18:40:41.358Z,6.07
2023-03-12T18:43:08.536Z,6.18
2023-03-12T18:45:35.228Z,5.40
2023-03-12T18:48:02.705Z,5.47
2023-03-12T18:50:29.692Z,6.32
2023-03-12T18:52:56.279Z,6.40
2023-03-12T18:55:23.227Z,6.38
2023-03-12T18:57:50.905Z,8.10
2023-03-12T19:00:18.815Z,7.57
2023-03-12T19:02:47.987Z,6.75
2023-03-12T19:05:16.507Z,7.10
2023-03-12T19:07:43.834Z,9.40
2023-03-12T19:10:11.908Z,6.75
2023-03-12T19:12:50.934Z,8.68
2023-03-12T19:15:19.677Z,8.55
2023-03-12T19:17:46.294Z,9.25
2023-03-12T19:20:13.288Z,9.95
2023-03-12T19:22:40.089Z,7.15
2023-03-12T19:25:07.250Z,7.03
2023-03-12T19:27:34.118Z,7.93
2023-03-12T19:30:00.921Z,8.82
2023-03-12T19:32:40.557Z,8.70
2023-03-12T19:35:11.052Z,8.05
2023-03-12T19:37:43.191Z,8.73
2023-03-12T19:40:10.946Z,9.15
2023-03-12T19:42:37.918Z,9.05
2023-03-12T19:45:04.962Z,8.45
2023-03-12T19:47:33.333Z,9.00
2023-03-12T19:50:00.925Z,8.82
2023-03-12T19:52:27.757Z,8.93
2023-03-12T19:55:04.329Z,8.68
2023-03-12T19:57:32.011Z,7.20
2023-03-12T19:59:59.181Z,7.78
2023-03-12T20:02:26.732Z,8.18
2023-03-12T20:04:55.156Z,8.60
2023-03-12T20:07:21.785Z,9.25
2023-03-12T20:09:48.559Z,8.25
2023-03-12T20:12:15.365Z,8.85
2023-03-12T20:14:42.980Z,8.60
2023-03-12T20:17:09.844Z,9.27
2023-03-12T20:19:38.642Z,8.77
2023-03-12T20:22:06.236Z,8.63
2023-03-12T20:24:34.899Z,8.25
2023-03-12T20:27:02.419Z,8.15
2023-03-12T20:29:31.298Z,9.30
2023-03-12T20:31:58.143Z,8.55
2023-03-12T20:34:27.680Z,8.80
2023-03-12T20:36:54.493Z,9.82
2023-03-12T20:39:21.310Z,8.10
2023-03-12T20:41:49.826Z,7.63
2023-03-12T20:44:17.074Z,8.13
2023-03-12T20:46:43.909Z,8.82
2023-03-12T20:49:10.676Z,7.40
2023-03-12T20:51:37.310Z,7.05
2023-03-12T20:54:06.859Z,7.90
2023-03-12T20:56:33.462Z,7.63
2023-03-12T20:59:00.061Z,6.03
2023-03-12T21:01:27.280Z,6.53
2023-03-12T21:03:59.605Z,6.80
2023-03-12T21:06:26.563Z,5.75
2023-03-12T21:08:56.116Z,7.05
2023-03-12T21:11:23.039Z,6.63
2023-03-12T21:13:49.750Z,5.93
2023-03-12T21:16:16.648Z,5.50
2023-03-12T21:18:43.347Z,5.85
2023-03-12T21:21:10.091Z,6.53
2023-03-12T21:23:38.780Z,5.65
2023-03-12T21:26:09.192Z,5.53
2023-03-12T21:28:36.440Z,4.95
2023-03-12T21:31:08.631Z,5.10
2023-03-12T21:33:35.386Z,6.07
2023-03-12T21:36:06.755Z,4.85
2023-03-12T21:38:35.633Z,5.68
2023-03-12T21:41:11.245Z,4.88
2023-03-12T21:43:38.506Z,4.82
2023-03-12T21:46:07.366Z,4.32
2023-03-12T21:48:35.125Z,4.35
2023-03-12T21:51:07.862Z,5.18
2023-03-12T21:53:35.735Z,4.57
2023-03-12T21:56:04.208Z,4.60
2023-03-12T21:58:31.888Z,4.35
2023-03-12T22:01:14.688Z,3.60
2023-03-12T22:03:43.084Z,4.32
2023-03-12T22:06:11.039Z,5.13
2023-03-12T22:08:38.687Z,5.00
2023-03-12T22:11:06.359Z,5.30
2023-03-12T22:13:32.997Z,3.92
2023-03-12T22:16:02.794Z,4.38
2023-03-12T22:18:30.373Z,4.32
2023-03-12T22:21:00.882Z,5.28
2023-03-12T22:23:27.972Z,3.70
2023-03-12T22:25:54.896Z,5.18
2023-03-12T22:28:24.622Z,6.07
2023-03-12T22:30:57.620Z,4.18
2023-03-12T22:33:24.525Z,5.78
2023-03-12T22:35:51.420Z,5.25
2023-03-12T22:38:18.162Z,3.85
2023-03-12T22:40:44.996Z,5.20
2023-03-12T22:43:11.781Z,5.55
2023-03-12T22:45:38.319Z,4.65
2023-03-12T22:48:05.238Z,6.55
2023-03-12T22:50:32.374Z,5.70
2023-03-12T22:52:59.570Z,5.80
2023-03-12T22:55:26.443Z,6.03
2023-03-12T22:57:53.109Z,6.22
2023-03-12T23:00:23.919Z,5.22
2023-03-12T23:02:51.168Z,5.85
2023-03-12T23:05:18.058Z,5.90
2023-03-12T23:07:44.972Z,5.85
2023-03-12T23:10:11.858Z,7.00
2023-03-12T23:12:38.395Z,6.35
2023-03-12T23:15:06.172Z,5.90
2023-03-12T23:17:33.007Z,6.22
2023-03-12T23:19:59.638Z,6.43
2023-03-12T23:22:26.265Z,6.00
2023-03-12T23:24:53.240Z,5.22
2023-03-12T23:27:19.842Z,5.35
2023-03-12T23:29:46.587Z,4.70
2023-03-12T23:32:13.992Z,5.55
2023-03-12T23:34:40.575Z,4.32
2023-03-12T23:37:07.300Z,4.90
2023-03-12T23:39:42.213Z,5.15
2023-03-12T23:42:18.533Z,4.47
2023-03-12T23:44:46.303Z,4.85
2023-03-12T23:47:12.937Z,5.60
2023-03-12T23:49:39.693Z,4.63
2023-03-12T23:52:06.718Z,4.40
2023-03-12T23:54:33.427Z,4.57
2023-03-12T23:57:00.178Z,4.43
2023-03-12T23:59:27.236Z,4.82
